createdAt,value
2022-09-07T00:01:15.325Z,102255.09
2022-09-07T00:04:21.401Z,102261.16
2022-09-07T00:07:32.439Z,102256.09
2022-09-07T00:10:38.282Z,102250.25
2022-09-07T00:13:44.964Z,102263.13
2022-09-07T00:16:50.347Z,102249.53
2022-09-07T00:19:56.663Z,102255.44
2022-09-07T00:23:03.843Z,102256.22
2022-09-07T00:26:11.725Z,102251.31
2022-09-07T00:29:17.013Z,102249.59
2022-09-07T00:32:22.526Z,102249.63
2022-09-07T00:35:28.203Z,102243.84
2022-09-07T00:38:34.970Z,102249.81
2022-09-07T00:41:40.213Z,102262.69
2022-09-07T00:45:10.090Z,102260.13
2022-09-07T00:48:18.833Z,102268.75
2022-09-07T00:51:30.184Z,102261.03
2022-09-07T00:54:42.403Z,102261.91
2022-09-07T00:57:53.008Z,102259.38
2022-09-07T01:01:00.958Z,102256.06
2022-09-07T01:04:06.771Z,102261.19
2022-09-07T01:07:12.493Z,102256.13
2022-09-07T01:10:19.521Z,102268.97
2022-09-07T01:13:25.077Z,102264.69
2022-09-07T01:16:56.193Z,102266.44
2022-09-07T01:20:41.802Z,102268.22
2022-09-07T01:24:37.898Z,102273.31
2022-09-07T01:28:09.026Z,102263.94
2022-09-07T01:31:26.180Z,102259.66
2022-09-07T01:34:31.492Z,102261.53
2022-09-07T01:37:45.784Z,102258.94
2022-09-07T01:40:58.669Z,102267.47
2022-09-07T01:44:09.065Z,102253.97
2022-09-07T01:47:20.003Z,102263.41
2022-09-07T01:50:28.661Z,102263.47
2022-09-07T01:53:37.709Z,102270.34
2022-09-07T01:56:46.678Z,102273.00
2022-09-07T01:59:58.686Z,102270.41
2022-09-07T02:03:07.992Z,102270.34
2022-09-07T02:06:18.069Z,102264.31
2022-09-07T02:09:29.521Z,102263.50
2022-09-07T02:12:41.400Z,102249.81
2022-09-07T02:15:52.672Z,102259.25
2022-09-07T02:19:02.611Z,102263.44
2022-09-07T02:22:12.046Z,102261.81
2022-09-07T02:25:22.485Z,102271.19
2022-09-07T02:28:32.010Z,102262.69
2022-09-07T02:31:38.688Z,102271.22
2022-09-07T02:34:43.957Z,102262.84
2022-09-07T02:37:50.660Z,102262.78
2022-09-07T02:40:58.693Z,102257.75
2022-09-07T02:44:07.380Z,102267.22
2022-09-07T02:47:25.981Z,102269.81
2022-09-07T02:50:45.864Z,102268.97
2022-09-07T02:54:03.782Z,102268.16
2022-09-07T02:57:20.336Z,102274.09
2022-09-07T03:00:26.947Z,102272.47
2022-09-07T03:03:44.034Z,102279.31
2022-09-07T03:06:53.270Z,102275.88
2022-09-07T03:10:00.438Z,102274.31
2022-09-07T03:13:05.765Z,102278.44
2022-09-07T03:16:15.180Z,102285.25
2022-09-07T03:19:21.870Z,102285.28
2022-09-07T03:22:27.216Z,102281.91
2022-09-07T03:25:32.422Z,102276.75
2022-09-07T03:28:37.762Z,102283.72
2022-09-07T03:31:43.038Z,102276.03
2022-09-07T03:34:49.563Z,102285.47
2022-09-07T03:37:54.875Z,102277.81
2022-09-07T03:41:02.119Z,102282.16
2022-09-07T03:44:08.571Z,102288.16
2022-09-07T03:47:14.832Z,102284.78
2022-09-07T03:50:21.873Z,102278.88
2022-09-07T03:53:27.378Z,102290.88
2022-09-07T03:56:32.615Z,102282.38
2022-09-07T03:59:37.882Z,102289.13
2022-09-07T04:02:43.343Z,102289.22
2022-09-07T04:05:50.201Z,102290.81
2022-09-07T04:08:56.281Z,102291.75
2022-09-07T04:12:01.890Z,102294.41
2022-09-07T04:15:08.873Z,102295.25
2022-09-07T04:18:15.046Z,102294.44
2022-09-07T04:21:22.242Z,102296.06
2022-09-07T04:24:27.712Z,102308.00
2022-09-07T04:27:33.006Z,102297.81
2022-09-07T04:30:38.435Z,102303.72
2022-09-07T04:33:44.223Z,102306.34
2022-09-07T04:36:50.816Z,102308.03
2022-09-07T04:39:56.251Z,102303.72
2022-09-07T04:43:01.959Z,102305.41
2022-09-07T04:46:09.579Z,102306.31
2022-09-07T04:49:15.051Z,102310.59
2022-09-07T04:52:22.139Z,102314.81
2022-09-07T04:55:27.894Z,102314.91
2022-09-07T04:58:33.309Z,102318.25
2022-09-07T05:01:38.871Z,102319.00
2022-09-07T05:04:44.446Z,102314.72
2022-09-07T05:07:51.313Z,102318.16
2022-09-07T05:10:57.684Z,102323.28
2022-09-07T05:14:04.973Z,102317.28
2022-09-07T05:17:11.199Z,102326.63
2022-09-07T05:20:20.192Z,102318.16
2022-09-07T05:23:27.068Z,102325.81
2022-09-07T05:26:34.599Z,102330.78
2022-09-07T05:33:07.995Z,102327.38
2022-09-07T05:36:14.397Z,102326.50
2022-09-07T05:39:21.721Z,102326.47
2022-09-07T05:42:27.103Z,102331.56
2022-09-07T05:45:33.065Z,102337.41
2022-09-07T05:48:38.514Z,102339.16
2022-09-07T05:51:43.982Z,102346.81
2022-09-07T05:54:50.810Z,102339.91
2022-09-07T05:57:56.134Z,102349.31
2022-09-07T06:01:02.170Z,102347.59
2022-09-07T06:04:07.522Z,102352.63
2022-09-07T06:07:23.223Z,102350.88
2022-09-07T06:10:47.379Z,102356.84
2022-09-07T06:13:53.124Z,102344.00
2022-09-07T06:16:58.501Z,102350.69
2022-09-07T06:20:04.681Z,102346.41
2022-09-07T06:23:10.330Z,102343.88
2022-09-07T06:26:18.249Z,102343.75
2022-09-07T06:29:23.730Z,102340.25
2022-09-07T06:32:45.724Z,102357.22
2022-09-07T06:35:58.401Z,102363.97
2022-09-07T06:39:03.878Z,102355.22
2022-09-07T06:42:10.950Z,102368.72
2022-09-07T06:45:21.915Z,102362.50
2022-09-07T06:48:27.486Z,102365.56
2022-09-07T06:51:32.726Z,102359.34
2022-09-07T06:58:03.059Z,102359.22
2022-09-07T07:01:12.015Z,102364.31
2022-09-07T07:04:17.287Z,102360.25
2022-09-07T07:07:22.629Z,102368.06
2022-09-07T07:10:28.037Z,102370.69
2022-09-07T07:13:35.613Z,102373.38
2022-09-07T07:16:40.985Z,102371.69
2022-09-07T07:19:46.333Z,102376.75
2022-09-07T07:22:52.417Z,102376.84
2022-09-07T07:26:02.139Z,102384.56
2022-09-07T07:29:08.798Z,102383.63
2022-09-07T07:32:14.461Z,102382.72
2022-09-07T07:35:19.763Z,102382.75
2022-09-07T07:52:49.905Z,102377.50
2022-09-07T07:55:00.966Z,102384.41
2022-09-07T07:58:06.494Z,102392.00
2022-09-07T08:01:16.357Z,102380.09
2022-09-07T08:04:23.188Z,102386.81
2022-09-07T08:07:28.468Z,102388.44
2022-09-07T08:10:33.819Z,102389.28
2022-09-07T08:13:41.434Z,102393.50
2022-09-07T08:16:48.487Z,102398.63
2022-09-07T08:19:55.518Z,102395.22
2022-09-07T08:23:00.887Z,102393.38
2022-09-07T08:26:07.222Z,102397.72
2022-09-07T08:29:14.646Z,102399.44
2022-09-07T08:32:21.445Z,102401.94
2022-09-07T08:35:26.847Z,102397.69
2022-09-07T08:38:34.327Z,102407.00
2022-09-07T08:41:55.374Z,102410.41
2022-09-07T08:45:06.304Z,102418.94
2022-09-07T08:48:20.030Z,102415.53
2022-09-07T08:51:34.539Z,102407.69
2022-09-07T08:54:41.403Z,102407.81
2022-09-07T08:57:54.175Z,102412.03
2022-09-07T09:04:29.584Z,102405.09
2022-09-07T09:07:42.810Z,102410.19
2022-09-07T09:10:57.966Z,102397.22
2022-09-07T09:14:07.686Z,102398.84
2022-09-07T09:17:23.678Z,102399.66
2022-09-07T09:20:37.147Z,102398.78
2022-09-07T09:23:44.958Z,102392.66
2022-09-07T09:26:53.030Z,102400.28
2022-09-07T09:29:58.438Z,102400.16
2022-09-07T09:33:19.958Z,102394.81
2022-09-07T09:36:35.362Z,102393.94
2022-09-07T09:39:42.681Z,102388.72
2022-09-07T09:42:49.211Z,102399.75
2022-09-07T09:46:13.678Z,102393.66
2022-09-07T09:49:24.770Z,102391.88
2022-09-07T09:52:43.884Z,102395.31
2022-09-07T09:55:53.245Z,102386.72
2022-09-07T10:06:07.766Z,102376.78
2022-09-07T10:09:21.936Z,102379.25
2022-09-07T10:12:30.519Z,102382.84
2022-09-07T10:15:40.456Z,102371.47
2022-09-07T10:18:58.289Z,102376.50
2022-09-07T10:22:05.856Z,102368.72
2022-09-07T10:32:31.394Z,102362.72
2022-09-07T10:35:43.186Z,102362.31
2022-09-07T10:38:52.986Z,102359.41
2022-09-07T10:42:05.247Z,102361.88
2022-09-07T10:45:19.385Z,102356.25
2022-09-07T10:48:31.887Z,102361.78
2022-09-07T10:51:44.858Z,102363.06
2022-09-07T10:54:55.454Z,102352.81
2022-09-07T10:58:12.583Z,102356.19
2022-09-07T11:01:25.356Z,102349.38
2022-09-07T11:04:46.874Z,102346.53
2022-09-07T11:08:15.428Z,102356.63
2022-09-07T11:14:59.423Z,102352.19
2022-09-07T11:18:09.861Z,102353.13
2022-09-07T11:21:56.279Z,102354.47
2022-09-07T11:25:29.200Z,102352.78
2022-09-07T11:28:18.729Z,102350.00
2022-09-07T11:31:27.745Z,102355.19
2022-09-07T11:34:39.630Z,102343.44
2022-09-07T11:37:49.594Z,102343.28
2022-09-07T11:41:18.790Z,102343.84
2022-09-07T11:44:30.041Z,102348.06
2022-09-07T11:47:39.943Z,102353.41
2022-09-07T11:50:51.262Z,102352.53
2022-09-07T11:54:03.708Z,102352.84
2022-09-07T11:57:44.903Z,102352.94
2022-09-07T12:00:57.014Z,102358.22
2022-09-07T12:04:39.960Z,102358.44
2022-09-07T12:08:14.026Z,102359.53
2022-09-07T12:11:44.538Z,102353.59
2022-09-07T12:15:03.355Z,102353.13
2022-09-07T12:18:33.380Z,102349.50
2022-09-07T12:21:43.760Z,102361.97
2022-09-07T12:24:52.465Z,102355.31
2022-09-07T12:27:58.986Z,102360.56
2022-09-07T12:31:05.826Z,102360.41
2022-09-07T12:34:40.835Z,102356.34
2022-09-07T12:37:46.315Z,102351.53
2022-09-07T12:41:01.549Z,102357.63
2022-09-07T12:44:11.122Z,102354.50
2022-09-07T12:47:29.823Z,102348.41
2022-09-07T12:50:39.310Z,102352.44
2022-09-07T12:53:57.609Z,102346.06
2022-09-07T12:57:30.617Z,102346.03
2022-09-07T13:00:49.503Z,102346.66
2022-09-07T13:04:16.793Z,102355.91
2022-09-07T13:07:57.417Z,102350.84
2022-09-07T13:11:33.015Z,102343.94
2022-09-07T13:14:42.828Z,102352.91
2022-09-07T13:17:57.404Z,102357.25
2022-09-07T13:21:37.787Z,102362.56
2022-09-07T13:24:56.342Z,102358.00
2022-09-07T13:28:02.614Z,102367.16
2022-09-07T13:31:48.987Z,102369.19
2022-09-07T13:35:21.822Z,102370.88
2022-09-07T13:38:27.664Z,102369.28
2022-09-07T13:41:38.462Z,102362.72
2022-09-07T13:44:43.707Z,102366.09
2022-09-07T13:47:57.836Z,102372.56
2022-09-07T13:51:08.355Z,102386.72
2022-09-07T13:54:21.758Z,102391.16
2022-09-07T13:57:30.258Z,102389.75
2022-09-07T14:00:36.089Z,102392.19
2022-09-07T14:03:50.423Z,102392.00
2022-09-07T14:07:03.840Z,102389.88
2022-09-07T14:10:18.668Z,102400.59
2022-09-07T14:13:24.230Z,102392.78
2022-09-07T14:16:29.582Z,102384.91
2022-09-07T14:19:40.469Z,102387.38
2022-09-07T14:22:50.634Z,102382.91
2022-09-07T14:26:18.518Z,102372.75
2022-09-07T14:29:27.554Z,102370.88
2022-09-07T14:32:32.773Z,102377.06
2022-09-07T14:35:41.073Z,102384.84
2022-09-07T14:42:15.209Z,102381.56
2022-09-07T14:45:33.189Z,102382.44
2022-09-07T14:48:40.637Z,102394.88
2022-09-07T14:51:48.473Z,102391.38
2022-09-07T14:54:54.870Z,102382.78
2022-09-07T14:58:23.684Z,102388.25
2022-09-07T15:01:37.880Z,102387.16
2022-09-07T15:04:43.615Z,102395.09
2022-09-07T15:07:53.296Z,102395.59
2022-09-07T15:14:29.635Z,102396.22
2022-09-07T15:17:50.246Z,102392.75
2022-09-07T15:20:55.745Z,102390.22
2022-09-07T15:24:04.049Z,102392.72
2022-09-07T15:27:21.205Z,102390.16
2022-09-07T15:30:27.464Z,102392.72
2022-09-07T15:33:32.838Z,102386.94
2022-09-07T15:36:40.356Z,102392.78
2022-09-07T15:39:47.306Z,102394.72
2022-09-07T15:43:00.717Z,102384.44
2022-09-07T15:46:06.579Z,102385.28
2022-09-07T15:49:12.555Z,102388.00
2022-09-07T15:52:18.134Z,102393.13
2022-09-07T15:55:25.385Z,102390.41
2022-09-07T15:58:31.169Z,102390.50
2022-09-07T16:01:52.570Z,102394.19
2022-09-07T16:04:58.363Z,102390.75
2022-09-07T16:11:34.968Z,102387.56
2022-09-07T16:14:40.823Z,102379.00
2022-09-07T16:17:54.070Z,102393.63
2022-09-07T16:21:11.748Z,102395.25
2022-09-07T16:24:17.970Z,102386.75
2022-09-07T16:27:25.828Z,102399.03
2022-09-07T16:30:33.599Z,102394.81
2022-09-07T16:33:39.479Z,102391.53
2022-09-07T16:36:45.353Z,102394.91
2022-09-07T16:39:51.532Z,102395.88
2022-09-07T16:42:58.447Z,102398.34
2022-09-07T16:46:05.220Z,102395.78
2022-09-07T16:49:12.049Z,102393.25
2022-09-07T16:52:17.273Z,102394.13
2022-09-07T16:55:22.590Z,102398.69
2022-09-07T16:58:35.784Z,102398.56
2022-09-07T17:01:41.782Z,102390.13
2022-09-07T17:04:47.389Z,102397.03
2022-09-07T17:07:52.606Z,102398.84
2022-09-07T17:11:00.909Z,102400.66
2022-09-07T17:14:07.689Z,102400.81
2022-09-07T17:17:13.312Z,102407.00
2022-09-07T17:20:18.631Z,102413.16
2022-09-07T17:23:24.210Z,102408.94
2022-09-07T17:26:29.869Z,102426.13
2022-09-07T17:29:37.789Z,102427.47
2022-09-07T17:32:43.150Z,102424.06
2022-09-07T17:35:48.805Z,102419.16
2022-09-07T17:42:19.858Z,102437.16
2022-09-07T17:45:27.974Z,102432.03
2022-09-07T17:48:35.242Z,102447.47
2022-09-07T17:51:40.797Z,102446.53
2022-09-07T17:54:46.010Z,102443.22
2022-09-07T17:57:51.694Z,102445.13
2022-09-07T18:01:02.541Z,102451.94
2022-09-07T18:04:07.917Z,102447.84
2022-09-07T18:07:13.374Z,102454.88
2022-09-07T18:10:19.435Z,102449.84
2022-09-07T18:13:35.103Z,102454.09
2022-09-07T18:16:44.106Z,102461.00
2022-09-07T18:19:49.450Z,102454.22
2022-09-07T18:22:54.666Z,102470.56
2022-09-07T18:26:00.852Z,102467.19
2022-09-07T18:29:18.710Z,102474.06
2022-09-07T18:32:33.770Z,102469.94
2022-09-07T18:35:39.081Z,102479.53
2022-09-07T18:38:45.046Z,102483.72
2022-09-07T18:41:50.362Z,102477.75
2022-09-07T18:48:22.301Z,102480.47
2022-09-07T18:51:30.134Z,102487.41
2022-09-07T18:54:35.711Z,102481.34
2022-09-07T18:57:40.910Z,102476.31
2022-09-07T19:00:47.580Z,102487.50
2022-09-07T19:03:57.428Z,102480.72
2022-09-07T19:07:02.773Z,102498.72
2022-09-07T19:10:11.461Z,102495.28
2022-09-07T19:13:17.162Z,102489.41
2022-09-07T19:16:22.849Z,102489.44
2022-09-07T19:19:29.558Z,102495.41
2022-09-07T19:22:34.850Z,102493.66
2022-09-07T19:25:43.058Z,102490.19
2022-09-07T19:28:52.419Z,102492.91
2022-09-07T19:32:07.554Z,102493.75
2022-09-07T19:35:14.216Z,102497.16
2022-09-07T19:38:19.862Z,102502.44
2022-09-07T19:41:25.860Z,102496.44
2022-09-07T19:44:31.567Z,102497.34
2022-09-07T19:47:36.787Z,102496.50
2022-09-07T19:50:44.843Z,102503.41
2022-09-07T19:53:50.366Z,102505.97
2022-09-07T19:56:55.667Z,102500.94
2022-09-07T20:00:00.861Z,102491.47
2022-09-07T20:03:09.591Z,102495.72
2022-09-07T20:06:18.850Z,102493.28
2022-09-07T20:09:24.847Z,102494.13
2022-09-07T20:12:30.059Z,102494.13
2022-09-07T20:15:35.290Z,102493.41
2022-09-07T20:18:41.284Z,102499.25
2022-09-07T20:21:48.966Z,102506.06
2022-09-07T20:24:54.170Z,102499.31
2022-09-07T20:27:59.379Z,102499.31
2022-09-07T20:31:08.321Z,102506.97
2022-09-07T20:34:14.379Z,102503.59
2022-09-07T20:37:21.196Z,102503.56
2022-09-07T20:40:26.537Z,102515.63
2022-09-07T20:43:32.245Z,102513.13
2022-09-07T20:46:38.268Z,102525.94
2022-09-07T20:49:43.579Z,102523.41
2022-09-07T20:52:50.319Z,102525.94
2022-09-07T20:56:03.335Z,102521.63
2022-09-07T20:59:08.827Z,102525.91
2022-09-07T21:02:15.239Z,102531.91
2022-09-07T21:05:20.510Z,102518.28
2022-09-07T21:08:27.258Z,102524.25
2022-09-07T21:11:35.464Z,102518.31
2022-09-07T21:14:40.765Z,102520.88
2022-09-07T21:17:46.007Z,102518.41
2022-09-07T21:21:18.317Z,102516.63
2022-09-07T21:24:25.058Z,102519.25
2022-09-07T21:27:38.145Z,102520.97
2022-09-07T21:30:43.847Z,102527.03
2022-09-07T21:33:49.340Z,102524.47
2022-09-07T21:36:54.679Z,102521.09
2022-09-07T21:40:03.082Z,102529.66
2022-09-07T21:43:08.347Z,102524.44
2022-09-07T21:46:16.031Z,102530.41
2022-09-07T21:49:21.387Z,102527.81
2022-09-07T21:52:26.703Z,102537.31
2022-09-07T21:55:33.307Z,102539.03
2022-09-07T21:58:40.106Z,102537.38
2022-09-07T22:01:45.540Z,102536.50
2022-09-07T22:04:50.806Z,102541.66
2022-09-07T22:07:56.042Z,102539.94
2022-09-07T22:11:08.340Z,102551.91
2022-09-07T22:14:15.742Z,102549.41
2022-09-07T22:17:21.417Z,102555.38
2022-09-07T22:20:26.854Z,102561.31
2022-09-07T22:23:33.014Z,102557.06
2022-09-07T22:26:40.058Z,102561.41
2022-09-07T22:29:45.386Z,102561.41
2022-09-07T22:32:52.274Z,102562.25
2022-09-07T22:35:57.591Z,102558.94
2022-09-07T22:39:06.667Z,102558.06
2022-09-07T22:42:14.178Z,102551.19
2022-09-07T22:45:19.463Z,102560.66
2022-09-07T22:48:25.119Z,102561.59
2022-09-07T22:51:30.431Z,102560.75
2022-09-07T22:54:35.670Z,102562.44
2022-09-07T22:57:42.470Z,102566.72
2022-09-07T23:00:48.164Z,102559.88
2022-09-07T23:03:54.672Z,102558.13
2022-09-07T23:06:59.946Z,102560.75
2022-09-07T23:10:05.854Z,102559.03
2022-09-07T23:13:16.751Z,102567.56
2022-09-07T23:16:22.831Z,102560.81
2022-09-07T23:19:28.819Z,102566.75
2022-09-07T23:22:34.041Z,102565.88
2022-09-07T23:25:40.014Z,102567.63
2022-09-07T23:28:46.699Z,102564.19
2022-09-07T23:31:52.053Z,102562.50
2022-09-07T23:34:57.283Z,102565.91
2022-09-07T23:38:03.094Z,102566.75
2022-09-07T23:41:08.789Z,102559.13
2022-09-07T23:44:16.551Z,102565.09
2022-09-07T23:47:22.166Z,102566.81
2022-09-07T23:50:27.698Z,102568.47
2022-09-07T23:53:33.915Z,102554.81
2022-09-07T23:56:39.192Z,102558.28
2022-09-07T23:59:45.811Z,102564.28
